Aviation Digital Data Service (ADDS)

Output produced by METARs form (1128 UTC 24 May 2022)
found at http://www.aviationweather.gov/metar/data/
 
VTUD 241100Z VRB02KT 9999 SCT025 SCT080 27/23 Q1006 NOSIG
VTUD 241000Z 23004KT 130V280 9999 SCT025 SCT080 27/24 Q1006 NOSIG
VTUD 240900Z 33007KT 9999 VCTS FEW015CB SCT025 27/24 Q1005 NOSIG
VTUD 240800Z 02004KT 330V060 9999 -TSRA FEW015CB SCT025 28/25 Q1005 NOSIG
VTUD 240700Z 08005KT 030V120 4000 RA BKN025 BKN080 28/26 Q1006 NOSIG
VTUD 240600Z 08004KT 010V110 9000 -RA BKN025 BKN080 30/25 Q1007 NOSIG
VTUD 240500Z VRB03KT 9999 SCT015 SCT030 31/25 Q1007 NOSIG
VTUD 240400Z VRB03KT 9999 BKN015 30/24 Q1008 NOSIG
VTUD 240300Z VRB03KT 9000 BKN010 30/25 Q1008 NOSIG
VTUD 240200Z VRB02KT 9000 BKN010 27/24 Q1008 NOSIG
VTUD 240100Z 00000KT 9000 BKN010 26/24 Q1007 NOSIG
VTUD 240000Z 00000KT 7000 BKN010 25/24 Q1006 NOSIG
VTUD 232300Z 06001KT 7000 BKN010 24/24 Q1006 NOSIG
VTUD 232200Z 05003KT 030V090 9000 BKN010 24/24 Q1005 NOSIG
VTUD 231600Z 10004KT 9000 SCT030 BKN100 25/24 Q1005 NOSIG
VTUD 231500Z 08003KT 9000 SCT030 BKN100 25/24 Q1005 NOSIG
VTUD 231400Z 14003KT 9000 SCT030 BKN100 25/24 Q1005 NOSIG
VTUD 231300Z 14004KT 100V180 9000 SCT030 BKN100 24/24 Q1004 NOSIG
VTUD 231200Z 13005KT 9000 SCT030 BKN100 24/23 Q1003 NOSIG
VTUD 231100Z 11007KT 9000 SCT030 BKN100 24/22 Q1002 NOSIG
TAF VTUD 240500Z 2406/2506 18008KT 9000 SCT030 SCT100 
     TEMPO 2407/2415 VRB15KT 4000 TSRA FEW018CB BKN020 BKN080 
     TEMPO 2416/2424 VRB15KT 4000 TSRA FEW018CB BKN020 BKN080